createdAt,value
2017-07-09T00:00:21.471Z,90.12
2017-07-09T00:01:02.048Z,90.6
2017-07-09T00:01:42.633Z,90.37
2017-07-09T00:02:23.210Z,90.46
2017-07-09T00:03:03.777Z,89.83
2017-07-09T00:03:44.347Z,90.12
2017-07-09T00:04:24.925Z,89.98
2017-07-09T00:05:05.499Z,90.17
2017-07-09T00:05:46.068Z,89.89
2017-07-09T00:06:26.647Z,89.79
2017-07-09T00:07:07.215Z,90.27
2017-07-09T00:07:47.779Z,90.08
2017-07-09T00:08:28.363Z,90.17
2017-07-09T00:09:08.928Z,90.17
2017-07-09T00:09:49.543Z,89.79
2017-07-09T00:10:30.118Z,89.79
2017-07-09T00:11:10.688Z,90.66
2017-07-09T00:11:51.316Z,90.56
2017-07-09T00:12:31.886Z,90.37
2017-07-09T00:13:12.485Z,90.46
2017-07-09T00:13:53.051Z,90.84
2017-07-09T00:14:33.662Z,90.75
2017-07-09T00:15:14.244Z,90.56
2017-07-09T00:15:54.809Z,90.75
2017-07-09T00:16:35.405Z,90.37
2017-07-09T00:17:18.898Z,90.56
2017-07-09T00:17:59.476Z,90.46
2017-07-09T00:18:40.042Z,89.98
2017-07-09T00:19:20.605Z,90.56
2017-07-09T00:20:01.189Z,90.46
2017-07-09T00:20:41.786Z,89.98
2017-07-09T00:21:22.360Z,90.17
2017-07-09T00:22:02.982Z,90.37
2017-07-09T00:22:43.585Z,90.08
2017-07-09T00:23:24.162Z,89.79
2017-07-09T00:24:04.761Z,90.56
2017-07-09T00:24:45.320Z,90.27
2017-07-09T00:25:25.883Z,90.17
2017-07-09T00:26:06.458Z,90.17
2017-07-09T00:26:47.033Z,89.98
2017-07-09T00:27:27.637Z,90.08
2017-07-09T00:28:08.223Z,90.08
2017-07-09T00:28:48.809Z,90.37
2017-07-09T00:29:29.388Z,90.08
2017-07-09T00:30:09.971Z,90.08
2017-07-09T00:30:50.551Z,89.69
2017-07-09T00:31:31.166Z,90.17
2017-07-09T00:32:11.722Z,90.27
2017-07-09T00:32:52.301Z,89.89
2017-07-09T00:33:32.860Z,90.27
2017-07-09T00:34:13.475Z,90.27
2017-07-09T00:34:54.059Z,90.17
2017-07-09T00:35:34.631Z,89.89
2017-07-09T00:36:15.200Z,89.89
2017-07-09T00:36:55.775Z,89.98
2017-07-09T00:37:36.343Z,90.17
2017-07-09T00:38:16.911Z,89.89
2017-07-09T00:38:57.479Z,89.98
2017-07-09T00:39:38.054Z,90.08
2017-07-09T00:40:18.633Z,89.89
2017-07-09T00:40:59.201Z,89.98
2017-07-09T00:41:39.783Z,90.17
2017-07-09T00:42:20.378Z,89.98
2017-07-09T00:43:00.952Z,90.08
2017-07-09T00:43:41.533Z,90.08
2017-07-09T00:44:22.115Z,90.27
2017-07-09T00:45:02.699Z,90.08
2017-07-09T00:45:43.304Z,89.98
2017-07-09T00:46:23.882Z,89.89
2017-07-09T00:47:04.465Z,90.27
2017-07-09T00:47:45.082Z,89.6
2017-07-09T00:48:25.664Z,89.6
2017-07-09T00:49:06.245Z,89.98
2017-07-09T00:49:46.866Z,89.69
2017-07-09T00:50:27.430Z,89.98
2017-07-09T00:51:08.029Z,89.98
2017-07-09T00:51:48.596Z,89.69
2017-07-09T00:52:29.213Z,89.5
2017-07-09T00:53:09.784Z,89.6
2017-07-09T00:53:50.392Z,89.4
2017-07-09T00:54:30.980Z,89.69
2017-07-09T00:55:11.547Z,89.4
2017-07-09T00:55:52.110Z,89.02
2017-07-09T00:56:32.791Z,89.6
2017-07-09T00:57:13.364Z,89.89
2017-07-09T00:57:54.124Z,89.69
2017-07-09T00:58:34.695Z,89.89
2017-07-09T00:59:15.369Z,88.73
2017-07-09T00:59:55.898Z,89.02
2017-07-09T01:00:36.492Z,89.22
2017-07-09T01:01:17.053Z,88.93
2017-07-09T01:01:57.684Z,88.93
2017-07-09T01:02:38.323Z,88.54
2017-07-09T01:03:19.158Z,89.02
2017-07-09T01:03:59.721Z,88.93
2017-07-09T01:04:40.302Z,89.22
2017-07-09T01:05:20.904Z,88.64
2017-07-09T01:06:01.534Z,88.83
2017-07-09T01:06:42.219Z,88.45
2017-07-09T01:07:23.217Z,88.25
2017-07-09T01:08:03.867Z,87.96
2017-07-09T01:08:44.471Z,88.35
2017-07-09T01:09:25.184Z,88.25
2017-07-09T01:10:05.767Z,88.45
2017-07-09T01:10:46.553Z,88.16
2017-07-09T01:11:27.257Z,88.35
2017-07-09T01:12:07.866Z,87.87
2017-07-09T01:12:48.456Z,87.87
2017-07-09T01:13:29.177Z,88.06
2017-07-09T01:14:09.794Z,88.25
2017-07-09T01:14:50.395Z,88.16
2017-07-09T01:15:30.985Z,88.25
2017-07-09T01:16:11.674Z,87.58
2017-07-09T01:16:52.294Z,87.58
2017-07-09T01:17:32.890Z,87.1
2017-07-09T01:18:13.505Z,86.81
2017-07-09T01:18:54.219Z,86.81
2017-07-09T01:19:34.817Z,86.43
2017-07-09T01:20:15.416Z,86.91
2017-07-09T01:20:56.016Z,86.81
2017-07-09T01:21:36.609Z,86.81
2017-07-09T01:22:17.257Z,87.1
2017-07-09T01:22:57.830Z,87.68
2017-07-09T01:23:38.393Z,87.58
2017-07-09T01:24:18.976Z,87.68
2017-07-09T01:24:59.590Z,87.29
2017-07-09T01:25:40.205Z,87.29
2017-07-09T01:26:20.787Z,87.58
2017-07-09T01:27:01.447Z,87.19
2017-07-09T01:27:42.065Z,87.19
2017-07-09T01:28:22.666Z,87.29
2017-07-09T01:29:03.237Z,87.96
2017-07-09T01:29:43.816Z,87.77
2017-07-09T01:30:24.405Z,87.87
2017-07-09T01:31:04.980Z,87.58
2017-07-09T01:31:45.567Z,87.19
2017-07-09T01:32:26.176Z,87.29
2017-07-09T01:33:06.744Z,87.58
2017-07-09T01:33:47.322Z,87.87
2017-07-09T01:34:27.891Z,88.02
2017-07-09T01:35:08.458Z,87.82
2017-07-09T01:35:49.038Z,87.73
2017-07-09T01:36:29.627Z,87.73
2017-07-09T01:37:10.211Z,87.25
2017-07-09T01:37:50.832Z,87.39
2017-07-09T01:38:31.391Z,87.15
2017-07-09T01:39:11.978Z,87.1
2017-07-09T01:39:52.553Z,87.54
2017-07-09T01:40:33.128Z,87.44
2017-07-09T01:41:13.708Z,86.77
2017-07-09T01:41:54.332Z,86.96
2017-07-09T01:42:34.922Z,86.77
2017-07-09T01:43:15.495Z,86.87
2017-07-09T01:43:56.065Z,86.48
2017-07-09T01:44:36.648Z,86.48
2017-07-09T01:45:17.232Z,86.1
2017-07-09T01:45:57.804Z,85.91
2017-07-09T01:46:38.376Z,86
2017-07-09T01:47:18.961Z,86.68
2017-07-09T01:47:59.536Z,86.48
2017-07-09T01:48:40.107Z,86.48
2017-07-09T01:49:20.680Z,85.81
2017-07-09T01:50:01.250Z,85.81
2017-07-09T01:50:41.850Z,85.91
2017-07-09T01:51:22.425Z,85.71
2017-07-09T01:52:03.015Z,86.29
2017-07-09T01:52:43.607Z,86.29
2017-07-09T01:53:24.192Z,86.38
2017-07-09T01:54:04.796Z,86.1
2017-07-09T01:54:45.401Z,86.38
2017-07-09T01:55:25.963Z,86
2017-07-09T01:56:06.532Z,86.19
2017-07-09T01:56:47.102Z,86.19
2017-07-09T01:57:27.691Z,86.38
2017-07-09T01:58:08.272Z,86.29
2017-07-09T01:58:48.856Z,86.29
2017-07-09T01:59:29.470Z,85.91
2017-07-09T02:00:10.080Z,86.29
2017-07-09T02:00:50.663Z,86.38
2017-07-09T02:01:31.224Z,86.38
2017-07-09T02:02:11.819Z,86.48
2017-07-09T02:02:52.433Z,86.48
2017-07-09T02:03:33.046Z,86.48
2017-07-09T02:04:13.629Z,85.81
2017-07-09T02:04:54.220Z,86
2017-07-09T02:05:34.788Z,86.1
2017-07-09T02:06:15.393Z,85.81
2017-07-09T02:06:55.939Z,86
2017-07-09T02:07:36.522Z,85.42
2017-07-09T02:08:17.132Z,85.52
2017-07-09T02:08:57.726Z,85.14
2017-07-09T02:09:38.293Z,84.75
2017-07-09T02:10:18.860Z,84.66
2017-07-09T02:10:59.448Z,83.98
2017-07-09T02:11:40.070Z,84.08
2017-07-09T02:12:20.653Z,84.27
2017-07-09T02:13:01.277Z,84.47
2017-07-09T02:13:41.896Z,84.56
2017-07-09T02:14:22.473Z,84.47
2017-07-09T02:15:03.039Z,84.18
2017-07-09T02:15:43.610Z,84.08
2017-07-09T02:16:24.202Z,83.98
2017-07-09T02:17:04.766Z,83.98
2017-07-09T02:17:45.343Z,84.47
2017-07-09T02:18:25.947Z,84.47
2017-07-09T02:19:06.506Z,84.85
2017-07-09T02:19:47.082Z,85.14
2017-07-09T02:20:27.678Z,85.52
2017-07-09T02:21:08.284Z,85.71
2017-07-09T02:21:48.871Z,85.24
2017-07-09T02:22:29.443Z,84.85
2017-07-09T02:23:10.010Z,85.33
2017-07-09T02:23:50.580Z,85.42
2017-07-09T02:24:31.150Z,84.56
2017-07-09T02:25:11.723Z,84.18
2017-07-09T02:25:52.324Z,84.75
2017-07-09T02:26:32.924Z,84.37
2017-07-09T02:27:13.530Z,84.75
2017-07-09T02:27:54.095Z,84.66
2017-07-09T02:28:34.653Z,83.89
2017-07-09T02:29:15.236Z,83.98
2017-07-09T02:29:55.811Z,84.27
2017-07-09T02:30:36.423Z,84.47
2017-07-09T02:31:16.993Z,84.27
2017-07-09T02:31:57.604Z,84.08
2017-07-09T02:32:38.184Z,84.18
2017-07-09T02:33:18.782Z,84.08
2017-07-09T02:33:59.373Z,84.47
2017-07-09T02:34:39.945Z,84.27
2017-07-09T02:35:20.513Z,84.47
2017-07-09T02:36:01.080Z,84.47
2017-07-09T02:36:41.653Z,84.18
2017-07-09T02:37:22.241Z,84.56
2017-07-09T02:38:02.826Z,84.18
2017-07-09T02:38:43.446Z,84.27
2017-07-09T02:39:24.013Z,84.18
2017-07-09T02:40:04.577Z,84.27
2017-07-09T02:40:45.148Z,84.47
2017-07-09T02:41:25.803Z,84.47
2017-07-09T02:42:06.334Z,84.08
2017-07-09T02:42:46.969Z,84.18
2017-07-09T02:43:27.536Z,83.7
2017-07-09T02:44:08.062Z,83.98
2017-07-09T02:44:48.661Z,83.8
2017-07-09T02:45:29.221Z,83.7
2017-07-09T02:46:09.805Z,83.41
2017-07-09T02:46:50.366Z,83.31
2017-07-09T02:47:30.947Z,84.08
2017-07-09T02:48:11.509Z,83.7
2017-07-09T02:48:52.075Z,83.41
2017-07-09T02:49:32.666Z,83.31
2017-07-09T02:50:13.273Z,83.7
2017-07-09T02:50:53.849Z,83.8
2017-07-09T02:51:34.440Z,83.22
2017-07-09T02:52:15.023Z,83.22
2017-07-09T02:52:55.647Z,83.51
2017-07-09T02:53:36.252Z,83.31
2017-07-09T02:54:16.842Z,83.18
2017-07-09T02:54:57.433Z,83.65
2017-07-09T02:55:38.005Z,84.14
2017-07-09T02:56:18.580Z,84.04
2017-07-09T02:56:59.179Z,84.14
2017-07-09T02:57:39.751Z,84.04
2017-07-09T02:58:20.321Z,84.42
2017-07-09T02:59:00.918Z,84.23
2017-07-09T02:59:41.487Z,84.33
2017-07-09T03:00:22.075Z,84.61
2017-07-09T03:01:02.640Z,84.04
2017-07-09T03:01:43.226Z,84.33
2017-07-09T03:02:23.823Z,84.33
2017-07-09T03:03:04.407Z,84.04
2017-07-09T03:03:44.991Z,84.14
2017-07-09T03:04:25.681Z,84.42
2017-07-09T03:05:06.186Z,84.23
2017-07-09T03:05:46.763Z,84.33
2017-07-09T03:06:27.351Z,84.71
2017-07-09T03:07:07.912Z,84.52
2017-07-09T03:07:48.491Z,85.1
2017-07-09T03:08:29.101Z,84.71
2017-07-09T03:09:09.683Z,84.61
2017-07-09T03:09:50.250Z,84.91
2017-07-09T03:10:30.909Z,84.81
2017-07-09T03:11:11.483Z,84.42
2017-07-09T03:11:52.082Z,84.42
2017-07-09T03:12:32.652Z,84.71
2017-07-09T03:13:13.223Z,84.42
2017-07-09T03:13:53.820Z,84.42
2017-07-09T03:14:34.393Z,83.94
2017-07-09T03:15:14.998Z,83.18
2017-07-09T03:15:55.646Z,83.94
2017-07-09T03:16:36.221Z,83.56
2017-07-09T03:17:16.807Z,83.94
2017-07-09T03:17:57.399Z,83.18
2017-07-09T03:18:37.982Z,82.31
2017-07-09T03:19:18.575Z,82.6
2017-07-09T03:19:59.133Z,82.41
2017-07-09T03:20:39.693Z,82.6
2017-07-09T03:21:20.265Z,83.08
2017-07-09T03:22:00.851Z,82.6
2017-07-09T03:22:41.450Z,82.51
2017-07-09T03:23:22.033Z,81.93
2017-07-09T03:24:02.626Z,82.51
2017-07-09T03:24:43.203Z,82.31
2017-07-09T03:25:23.811Z,82.6
2017-07-09T03:26:04.423Z,82.31
2017-07-09T03:26:44.996Z,82.98
2017-07-09T03:27:25.596Z,82.89
2017-07-09T03:28:06.143Z,82.31
2017-07-09T03:28:46.717Z,81.74
2017-07-09T03:29:27.315Z,82.03
2017-07-09T03:30:07.876Z,82.6
2017-07-09T03:30:48.444Z,82.7
2017-07-09T03:31:28.996Z,83.18
2017-07-09T03:32:09.560Z,82.89
2017-07-09T03:32:50.157Z,82.98
2017-07-09T03:33:30.743Z,83.37
2017-07-09T03:34:11.354Z,83.18
2017-07-09T03:34:51.926Z,83.47
2017-07-09T03:35:32.531Z,83.18
2017-07-09T03:36:13.073Z,83.27
2017-07-09T03:36:53.639Z,83.65
2017-07-09T03:37:34.220Z,83.18
2017-07-09T03:38:14.791Z,83.18
2017-07-09T03:38:55.417Z,82.89
2017-07-09T03:39:35.992Z,82.89
2017-07-09T03:40:16.594Z,83.27
2017-07-09T03:40:57.170Z,83.18
2017-07-09T03:41:37.739Z,83.18
2017-07-09T03:42:18.326Z,83.65
2017-07-09T03:42:58.938Z,82.98
2017-07-09T03:43:39.471Z,83.18
2017-07-09T03:44:20.061Z,82.21
2017-07-09T03:45:00.658Z,81.93
2017-07-09T03:45:41.226Z,81.93
2017-07-09T03:46:21.814Z,81.64
2017-07-09T03:47:02.400Z,81.64
2017-07-09T03:47:42.976Z,81.64
2017-07-09T03:48:23.532Z,81.54
2017-07-09T03:49:04.127Z,81.64
2017-07-09T03:49:44.707Z,81.16
2017-07-09T03:50:25.282Z,81.93
2017-07-09T03:51:05.873Z,81.54
2017-07-09T03:51:46.486Z,81.64
2017-07-09T03:52:27.073Z,81.07
2017-07-09T03:53:07.645Z,81.16
2017-07-09T03:53:48.209Z,80.97
2017-07-09T03:54:28.772Z,80.78
2017-07-09T03:55:09.341Z,81.54
2017-07-09T03:55:49.910Z,81.64
2017-07-09T03:56:30.478Z,81.84
2017-07-09T03:57:11.046Z,81.74
2017-07-09T03:57:51.608Z,82.03
2017-07-09T03:58:32.187Z,82.51
2017-07-09T03:59:12.752Z,82.12
2017-07-09T03:59:53.323Z,81.54
2017-07-09T04:00:33.889Z,81.84
2017-07-09T04:01:14.459Z,81.54
2017-07-09T04:01:55.086Z,80.97
2017-07-09T04:02:35.663Z,80.68
2017-07-09T04:03:16.229Z,81.16
2017-07-09T04:03:56.801Z,81.35
2017-07-09T04:04:37.384Z,81.26
2017-07-09T04:05:17.963Z,81.26
2017-07-09T04:05:58.543Z,81.45
2017-07-09T04:06:39.121Z,80.87
2017-07-09T04:07:19.690Z,81.35
2017-07-09T04:08:00.304Z,81.16
2017-07-09T04:08:40.867Z,81.26
2017-07-09T04:09:21.444Z,80.78
2017-07-09T04:10:02.028Z,81.26
2017-07-09T04:10:42.586Z,81.16
2017-07-09T04:11:23.167Z,80.4
2017-07-09T04:12:03.754Z,79.91
2017-07-09T04:12:44.315Z,79.53
2017-07-09T04:13:24.879Z,79.34
2017-07-09T04:14:05.459Z,79.82
2017-07-09T04:14:46.026Z,79.44
2017-07-09T04:15:26.597Z,80.11
2017-07-09T04:16:07.168Z,80.11
2017-07-09T04:16:47.771Z,80.11
2017-07-09T04:17:28.343Z,80.4
2017-07-09T04:18:08.923Z,80.58
2017-07-09T04:18:49.492Z,80.97
2017-07-09T04:19:30.054Z,80.87
2017-07-09T04:20:10.622Z,80.2
2017-07-09T04:20:51.182Z,80.58
2017-07-09T04:21:31.763Z,80.2
2017-07-09T04:22:12.340Z,80.49
2017-07-09T04:22:52.914Z,80.3
2017-07-09T04:23:33.482Z,80.49
2017-07-09T04:24:14.113Z,80.4
2017-07-09T04:24:54.679Z,80.4
2017-07-09T04:25:35.265Z,80.3
2017-07-09T04:26:15.864Z,80.49
2017-07-09T04:26:56.437Z,80.11
2017-07-09T04:27:37.000Z,80.4
2017-07-09T04:28:17.569Z,80.49
2017-07-09T04:28:58.156Z,79.91
2017-07-09T04:29:38.751Z,79.91
2017-07-09T04:30:19.322Z,79.05
2017-07-09T04:30:59.893Z,79.24
2017-07-09T04:31:40.547Z,79.72
2017-07-09T04:32:21.060Z,79.05
2017-07-09T04:33:01.655Z,79.34
2017-07-09T04:33:42.219Z,79.82
2017-07-09T04:34:22.778Z,79.34
2017-07-09T04:35:03.356Z,78.96
2017-07-09T04:35:43.933Z,79.34
2017-07-09T04:36:24.517Z,78.86
2017-07-09T04:37:05.081Z,78.28
2017-07-09T04:37:45.655Z,78.77
2017-07-09T04:38:26.238Z,79.14
2017-07-09T04:39:06.808Z,79.34
2017-07-09T04:39:47.378Z,78.77
2017-07-09T04:40:27.940Z,78
2017-07-09T04:41:08.506Z,78.19
2017-07-09T04:41:49.069Z,77.9
2017-07-09T04:42:29.643Z,78.57
2017-07-09T04:43:10.244Z,78.96
2017-07-09T04:43:50.874Z,79.34
2017-07-09T04:44:31.448Z,79.44
2017-07-09T04:45:12.018Z,78.38
2017-07-09T04:45:52.591Z,77.42
2017-07-09T04:46:33.161Z,77.71
2017-07-09T04:47:13.742Z,77.61
2017-07-09T04:47:54.311Z,78.19
2017-07-09T04:48:34.879Z,77.9
2017-07-09T04:49:15.438Z,77.9
2017-07-09T04:49:56.107Z,77.9
2017-07-09T04:50:36.692Z,78.32
2017-07-09T04:51:17.274Z,78.86
2017-07-09T04:51:57.835Z,77.71
2017-07-09T04:52:38.413Z,76.94
2017-07-09T04:53:18.975Z,77.61
2017-07-09T04:54:00.122Z,78.09
2017-07-09T04:54:40.701Z,78
2017-07-09T04:55:21.269Z,78.47
2017-07-09T04:56:01.843Z,78.47
2017-07-09T04:56:42.407Z,78.47
2017-07-09T04:57:22.964Z,78.86
2017-07-09T04:58:03.529Z,78.67
2017-07-09T04:58:44.099Z,78.96
2017-07-09T04:59:24.654Z,79.38
2017-07-09T05:00:05.229Z,78.7
2017-07-09T05:00:45.898Z,78.28
2017-07-09T05:01:26.464Z,78.61
2017-07-09T05:02:07.019Z,77.84
2017-07-09T05:02:47.608Z,78.42
2017-07-09T05:03:28.187Z,78.7
2017-07-09T05:04:08.756Z,78.52
2017-07-09T05:04:49.329Z,78.52
2017-07-09T05:05:29.898Z,78.8
2017-07-09T05:06:10.469Z,78.8
2017-07-09T05:06:51.066Z,78.52
2017-07-09T05:07:31.631Z,78.52
2017-07-09T05:08:12.188Z,78.03
2017-07-09T05:08:52.750Z,77.84
2017-07-09T05:09:33.318Z,77.84
2017-07-09T05:10:13.880Z,77.56
2017-07-09T05:10:54.437Z,77.65
2017-07-09T05:11:35.025Z,77.75
2017-07-09T05:12:15.599Z,78.42
2017-07-09T05:12:56.170Z,78.8
2017-07-09T05:13:36.732Z,79.19
2017-07-09T05:14:17.289Z,79.38
2017-07-09T05:14:57.864Z,79.38
2017-07-09T05:15:38.421Z,78.52
2017-07-09T05:16:18.984Z,77.56
2017-07-09T05:16:59.629Z,76.98
2017-07-09T05:17:40.216Z,76.79
2017-07-09T05:18:20.830Z,77.46
2017-07-09T05:19:01.606Z,77.36
2017-07-09T05:19:42.178Z,77.56
2017-07-09T05:20:22.801Z,77.17
2017-07-09T05:21:03.375Z,76.4
2017-07-09T05:21:43.944Z,75.73
2017-07-09T05:22:24.567Z,76.4
2017-07-09T05:23:05.153Z,76.31
2017-07-09T05:23:45.875Z,76.4
2017-07-09T05:24:26.461Z,75.54
2017-07-09T05:25:07.643Z,76.02
2017-07-09T05:25:48.338Z,75.73
2017-07-09T05:26:28.985Z,76.69
2017-07-09T05:27:09.727Z,76.5
2017-07-09T05:27:50.298Z,76.79
2017-07-09T05:28:31.198Z,75.92
2017-07-09T05:29:11.768Z,75.54
2017-07-09T05:29:52.406Z,75.06
2017-07-09T05:30:33.050Z,75.25
2017-07-09T05:31:13.677Z,75.54
2017-07-09T05:31:54.277Z,76.64
2017-07-09T05:32:34.963Z,77.11
2017-07-09T05:33:15.586Z,77.69
2017-07-09T05:33:56.424Z,77.59
2017-07-09T05:34:37.326Z,77.59
2017-07-09T05:35:18.123Z,76.73
2017-07-09T05:35:58.695Z,76.09
2017-07-09T05:36:39.452Z,75.96
2017-07-09T05:37:20.163Z,75.32
2017-07-09T05:38:00.749Z,75.62
2017-07-09T05:38:41.389Z,74.65
2017-07-09T05:39:22.534Z,74.75
2017-07-09T05:40:03.116Z,74.79
2017-07-09T05:40:43.745Z,74.5
2017-07-09T05:41:24.335Z,73.06
2017-07-09T05:42:05.042Z,72.29
2017-07-09T05:42:46.056Z,72.19
2017-07-09T05:43:26.847Z,72.86
2017-07-09T05:44:07.896Z,73.09
2017-07-09T05:44:48.478Z,73.28
2017-07-09T05:45:29.320Z,72.9
2017-07-09T05:46:10.157Z,72.23
2017-07-09T05:46:50.888Z,72.32
2017-07-09T05:47:31.699Z,72.94
2017-07-09T05:48:12.281Z,73.32
2017-07-09T05:48:52.869Z,72.94
2017-07-09T05:49:33.442Z,72.65
2017-07-09T05:50:14.028Z,71.91
2017-07-09T05:50:54.614Z,70.56
2017-07-09T05:51:35.201Z,70.37
2017-07-09T05:52:15.886Z,70.47
2017-07-09T05:52:57.101Z,70.18
2017-07-09T05:53:38.015Z,70.89
2017-07-09T05:54:18.801Z,69.54
2017-07-09T05:54:59.651Z,69.54
2017-07-09T05:55:40.463Z,69.64
2017-07-09T05:56:21.239Z,68.96
2017-07-09T05:57:02.189Z,67.81
2017-07-09T05:57:42.842Z,67.07
2017-07-09T05:58:23.451Z,66.49
2017-07-09T05:59:04.193Z,65.53
2017-07-09T05:59:44.929Z,66.11
2017-07-09T06:00:25.535Z,66.3
2017-07-09T06:01:06.100Z,65.53
2017-07-09T06:01:46.684Z,66.39
2017-07-09T06:02:27.268Z,66.3
2017-07-09T06:03:07.848Z,65.05
2017-07-09T06:03:48.652Z,66.3
2017-07-09T06:04:29.235Z,65.24
2017-07-09T06:05:10.075Z,65.81
2017-07-09T06:05:50.649Z,66.2
2017-07-09T06:06:31.289Z,65.14
2017-07-09T06:07:11.854Z,63.82
2017-07-09T06:07:52.545Z,64.11
2017-07-09T06:08:33.150Z,63.63
2017-07-09T06:09:13.788Z,63.63
2017-07-09T06:09:54.387Z,63.5
2017-07-09T06:10:35.040Z,64.4
2017-07-09T06:11:15.763Z,64.02
2017-07-09T06:11:56.442Z,63.06
2017-07-09T06:12:37.099Z,63.63
2017-07-09T06:13:17.677Z,64.02
2017-07-09T06:13:58.592Z,64.4
2017-07-09T06:14:39.168Z,63.63
2017-07-09T06:15:19.843Z,63.57
2017-07-09T06:16:00.932Z,63.95
2017-07-09T06:16:41.502Z,63.85
2017-07-09T06:17:22.104Z,63.76
2017-07-09T06:18:02.696Z,63.37
2017-07-09T06:18:43.368Z,63.76
2017-07-09T06:19:24.143Z,64.63
2017-07-09T06:20:04.759Z,64.92
2017-07-09T06:20:45.359Z,62.89
2017-07-09T06:21:26.096Z,63.4
2017-07-09T06:22:06.720Z,61.54
2017-07-09T06:22:47.592Z,61.74
2017-07-09T06:23:28.197Z,60.03
2017-07-09T06:24:08.877Z,60
2017-07-09T06:24:49.447Z,60.89
2017-07-09T06:25:30.038Z,61.57
2017-07-09T06:26:10.876Z,62.05
2017-07-09T06:26:51.752Z,63.4
2017-07-09T06:27:32.369Z,63.12
2017-07-09T06:28:12.976Z,63.21
2017-07-09T06:28:53.842Z,63.98
2017-07-09T06:29:34.469Z,63.7
2017-07-09T06:30:15.083Z,63.53
2017-07-09T06:30:55.872Z,61.7
2017-07-09T06:31:36.582Z,61.12
2017-07-09T06:32:17.253Z,61.22
2017-07-09T06:32:57.892Z,60.64
2017-07-09T06:33:38.547Z,59.86
2017-07-09T06:34:19.401Z,59.67
2017-07-09T06:34:59.995Z,59.38
2017-07-09T06:35:40.777Z,59.28
2017-07-09T06:36:21.399Z,59.86
2017-07-09T06:37:02.001Z,60.16
2017-07-09T06:37:42.903Z,60.67
2017-07-09T06:38:23.826Z,60.44
2017-07-09T06:39:04.530Z,59.28
2017-07-09T06:39:45.135Z,58.64
2017-07-09T06:40:25.715Z,57.57
2017-07-09T06:41:06.297Z,57.67
2017-07-09T06:41:46.948Z,58.93
2017-07-09T06:42:27.968Z,58.93
2017-07-09T06:43:08.631Z,57.87
2017-07-09T06:43:49.439Z,58.64
2017-07-09T06:44:30.315Z,58.93
2017-07-09T06:45:11.249Z,59.41
2017-07-09T06:45:51.980Z,59.99
2017-07-09T06:46:32.837Z,58.93
2017-07-09T06:47:13.526Z,57.77
2017-07-09T06:47:54.278Z,57.77
2017-07-09T06:48:35.240Z,58.93
2017-07-09T06:49:16.187Z,59.89
2017-07-09T06:49:57.205Z,60.31
2017-07-09T06:50:38.094Z,59.83
2017-07-09T06:51:18.765Z,60.89
2017-07-09T06:51:59.341Z,60.79
2017-07-09T06:52:40.016Z,57.7
2017-07-09T06:53:20.597Z,56.45
2017-07-09T06:54:01.167Z,56.05
2017-07-09T06:54:41.748Z,55.67
2017-07-09T06:55:22.396Z,56.05
2017-07-09T06:56:03.191Z,57.7
2017-07-09T06:56:43.825Z,59.15
2017-07-09T06:57:24.455Z,58.28
2017-07-09T06:58:05.014Z,57.67
2017-07-09T06:58:46.148Z,57.87
2017-07-09T06:59:26.810Z,57.87
2017-07-09T07:00:07.385Z,58.25
2017-07-09T07:00:47.960Z,58.51
2017-07-09T07:01:28.548Z,58.22
2017-07-09T07:02:09.133Z,57.26
2017-07-09T07:02:49.719Z,56.68
2017-07-09T07:03:30.329Z,56.58
2017-07-09T07:04:10.899Z,57.35
2017-07-09T07:04:51.471Z,56.77
2017-07-09T07:05:32.045Z,57.84
2017-07-09T07:06:12.632Z,58.03
2017-07-09T07:06:53.218Z,59.28
2017-07-09T07:07:34.420Z,60.35
2017-07-09T07:08:15.234Z,59.58
2017-07-09T07:08:56.078Z,59.77
2017-07-09T07:09:36.672Z,61.02
2017-07-09T07:10:17.985Z,60.54
2017-07-09T07:10:58.740Z,61.02
2017-07-09T07:11:40.362Z,60.64
2017-07-09T07:12:21.643Z,60.25
2017-07-09T07:13:02.498Z,58.93
2017-07-09T07:13:44.244Z,56.61
2017-07-09T07:14:25.401Z,58.45
2017-07-09T07:15:18.735Z,59.41
2017-07-09T07:16:03.109Z,60.96
2017-07-09T07:16:43.753Z,60.47
2017-07-09T07:17:25.059Z,61.37
2017-07-09T07:18:06.712Z,61.47
2017-07-09T07:18:52.253Z,60.89
2017-07-09T07:19:32.847Z,59.34
2017-07-09T07:20:13.554Z,60.79
2017-07-09T07:20:54.184Z,59.05
2017-07-09T07:21:34.790Z,58.28
2017-07-09T07:22:15.404Z,57.73
2017-07-09T07:22:55.993Z,59.08
2017-07-09T07:23:36.630Z,58.98
2017-07-09T07:24:17.257Z,58.4
2017-07-09T07:24:57.871Z,58.4
2017-07-09T07:25:38.438Z,57.73
2017-07-09T07:26:19.212Z,57.82
2017-07-09T07:26:59.798Z,56.28
2017-07-09T07:27:41.299Z,56.57
2017-07-09T07:28:21.938Z,56.35
2017-07-09T07:29:02.509Z,56.25
2017-07-09T07:29:43.102Z,56.15
2017-07-09T07:30:23.731Z,57.03
2017-07-09T07:31:04.453Z,57.48
2017-07-09T07:31:45.076Z,57.77
2017-07-09T07:32:25.637Z,57.96
2017-07-09T07:33:06.226Z,57.09
2017-07-09T07:33:47.006Z,57.09
2017-07-09T07:34:28.108Z,58.35
2017-07-09T07:35:10.859Z,58.45
2017-07-09T07:35:51.677Z,57.57
2017-07-09T07:36:32.997Z,57.48
2017-07-09T07:37:14.609Z,58.45
2017-07-09T07:37:56.115Z,58.83
2017-07-09T07:38:37.655Z,58.73
2017-07-09T07:39:18.959Z,58.64
2017-07-09T07:39:59.652Z,59.51
2017-07-09T07:40:40.338Z,59.44
2017-07-09T07:41:22.289Z,59.73
2017-07-09T07:42:04.085Z,58.76
2017-07-09T07:42:46.163Z,59.25
2017-07-09T07:43:27.772Z,58.67
2017-07-09T07:44:10.499Z,58.86
2017-07-09T07:44:51.050Z,57.92
2017-07-09T07:45:32.546Z,57.7
2017-07-09T07:46:14.132Z,57.73
2017-07-09T07:46:54.925Z,56.18
2017-07-09T07:47:35.932Z,55.02
2017-07-09T07:48:20.276Z,55.7
2017-07-09T07:49:11.999Z,55.89
2017-07-09T07:49:59.499Z,57.79
2017-07-09T07:50:47.733Z,57.12
2017-07-09T07:51:30.877Z,56.35
2017-07-09T07:52:11.469Z,55.87
2017-07-09T07:52:52.056Z,55.57
2017-07-09T07:53:32.740Z,57.19
2017-07-09T07:54:13.326Z,57.48
2017-07-09T07:54:53.950Z,54.97
2017-07-09T07:55:34.569Z,53.81
2017-07-09T07:56:15.188Z,54
2017-07-09T07:56:55.791Z,54.36
2017-07-09T07:57:36.387Z,55.04
2017-07-09T07:58:17.009Z,55.71
2017-07-09T07:58:57.577Z,56.96
2017-07-09T07:59:38.152Z,58.29
2017-07-09T08:00:18.748Z,58.58
2017-07-09T08:00:59.330Z,58.87
2017-07-09T08:01:39.907Z,60.13
2017-07-09T08:02:20.475Z,60.99
2017-07-09T08:03:01.056Z,60.89
2017-07-09T08:03:41.667Z,60.8
2017-07-09T08:04:22.349Z,60.99
2017-07-09T08:05:02.862Z,60.71
2017-07-09T08:05:43.440Z,59.64
2017-07-09T08:06:24.023Z,59.74
2017-07-09T08:07:04.897Z,60.71
2017-07-09T08:07:45.564Z,59.67
2017-07-09T08:08:26.170Z,59.35
2017-07-09T08:09:06.790Z,59.64
2017-07-09T08:09:47.400Z,59.64
2017-07-09T08:10:28.509Z,58.68
2017-07-09T08:11:09.069Z,58.77
2017-07-09T08:11:49.762Z,58.58
2017-07-09T08:12:30.443Z,59.25
2017-07-09T08:13:11.179Z,58.48
2017-07-09T08:13:58.732Z,58.39
2017-07-09T08:14:53.105Z,58.75
2017-07-09T08:15:33.688Z,59.9
2017-07-09T08:16:14.304Z,59.23
2017-07-09T08:16:54.876Z,60
2017-07-09T08:17:35.465Z,60.96
2017-07-09T08:18:16.027Z,60.68
2017-07-09T08:18:56.636Z,60.96
2017-07-09T08:19:37.528Z,61.44
2017-07-09T08:20:18.375Z,61.93
2017-07-09T08:20:58.949Z,61.44
2017-07-09T08:21:39.542Z,61.54
2017-07-09T08:22:20.158Z,62.22
2017-07-09T08:23:00.775Z,62.02
2017-07-09T08:23:41.358Z,62.6
2017-07-09T08:24:21.989Z,62.09
2017-07-09T08:25:02.616Z,62.18
2017-07-09T08:25:43.230Z,62.48
2017-07-09T08:26:23.821Z,62.66
2017-07-09T08:27:04.429Z,62.57
2017-07-09T08:27:45.083Z,62.76
2017-07-09T08:28:25.725Z,62.66
2017-07-09T08:29:06.356Z,62.76
2017-07-09T08:29:46.931Z,62.76
2017-07-09T08:30:27.522Z,62.09
2017-07-09T08:31:08.114Z,62.38
2017-07-09T08:31:48.698Z,62.76
2017-07-09T08:32:29.281Z,63.54
2017-07-09T08:33:09.864Z,62.66
2017-07-09T08:33:50.442Z,62.57
2017-07-09T08:34:31.025Z,63.15
2017-07-09T08:35:11.643Z,63.82
2017-07-09T08:35:52.258Z,63.54
2017-07-09T08:36:32.847Z,63.63
2017-07-09T08:37:13.467Z,63.82
2017-07-09T08:37:54.071Z,62.86
2017-07-09T08:38:34.664Z,62.86
2017-07-09T08:39:15.256Z,62.66
2017-07-09T08:39:55.855Z,63.31
2017-07-09T08:40:36.461Z,63.5
2017-07-09T08:41:17.286Z,63.41
2017-07-09T08:41:57.872Z,63.12
2017-07-09T08:42:38.482Z,63.89
2017-07-09T08:43:19.093Z,63.6
2017-07-09T08:43:59.716Z,63.79
2017-07-09T08:44:40.320Z,64.18
2017-07-09T08:45:20.930Z,64.47
2017-07-09T08:46:01.528Z,64.86
2017-07-09T08:46:42.188Z,64.37